Wetterdaten: Woche 12.04.10 - 18.04.10 (KW15)
Datum Zeit Temp. A. Feuchte A. Luftdruck Regen Wind Richtung Taupunkt Windchill Windben
12.04.2010 00:00 4,3 C 81 % 1017,5 hPa 0,0 l/m 0,4 km/h N 1,3 C 4,3 C 2,8 km/h
12.04.2010 01:00 4,8 C 81 % 1017,4 hPa 0,0 l/m 1,6 km/h NW 1,8 C 4,8 C 6,0 km/h
12.04.2010 02:00 4,8 C 79 % 1016,8 hPa 0,0 l/m 2,1 km/h NW 1,6 C 4,8 C 6,8 km/h
12.04.2010 03:00 4,3 C 81 % 1016,7 hPa 0,0 l/m 0,8 km/h NW 1,2 C 4,3 C 3,6 km/h
12.04.2010 04:00 4,3 C 80 % 1016,4 hPa 0,0 l/m 2,8 km/h NW 1,2 C 4,3 C 7,6 km/h
12.04.2010 05:00 4,3 C 82 % 1016,5 hPa 0,0 l/m 0,5 km/h N 1,4 C 4,3 C 3,2 km/h
12.04.2010 06:00 4,2 C 82 % 1016,3 hPa 0,0 l/m 1,1 km/h N-NW 1,4 C 4,2 C 4,4 km/h
12.04.2010 07:00 4,6 C 82 % 1016,6 hPa 0,0 l/m 1,5 km/h NW 1,7 C 4,6 C 4,8 km/h
12.04.2010 08:00 5,1 C 79 % 1016,5 hPa 0,0 l/m 3,7 km/h NW 1,8 C 5,1 C 9,3 km/h
12.04.2010 09:00 5,9 C 75 % 1016,5 hPa 0,0 l/m 3,8 km/h N-NW 1,9 C 5,9 C 9,3 km/h
12.04.2010 10:00 6,4 C 72 % 1016,3 hPa 0,0 l/m 4,9 km/h NW 1,7 C 6,4 C 10,5 km/h
12.04.2010 11:00 6,2 C 77 % 1016,1 hPa 0,5 l/m 3,3 km/h N-NW 2,4 C 6,2 C 9,3 km/h
12.04.2010 12:00 5,5 C 85 % 1016,2 hPa 1,8 l/m 2,3 km/h N-NW 3,2 C 5,5 C 7,2 km/h
12.04.2010 13:00 5,6 C 87 % 1016,0 hPa 1,6 l/m 3,8 km/h N 3,6 C 5,6 C 10,1 km/h
12.04.2010 14:00 5,6 C 87 % 1015,7 hPa 1,0 l/m 3,3 km/h N-NW 3,5 C 5,6 C 8,0 km/h
12.04.2010 15:00 5,8 C 87 % 1015,4 hPa 1,0 l/m 2,7 km/h W 3,8 C 5,8 C 7,2 km/h
12.04.2010 16:00 5,9 C 87 % 1015,0 hPa 0,8 l/m 1,3 km/h W-SW 3,9 C 5,9 C 6,0 km/h
12.04.2010 17:00 6,0 C 88 % 1014,8 hPa 1,0 l/m 0,8 km/h W-SW 4,2 C 6,0 C 6,0 km/h
12.04.2010 18:00 5,9 C 89 % 1014,6 hPa 0,8 l/m 0,9 km/h SW 4,3 C 5,9 C 5,6 km/h
12.04.2010 19:00 5,9 C 90 % 1014,6 hPa 1,3 l/m 1,2 km/h SW 4,4 C 5,9 C 6,4 km/h
12.04.2010 20:00 5,7 C 90 % 1014,6 hPa 1,6 l/m 1,5 km/h SW 4,2 C 5,7 C 9,2 km/h
12.04.2010 21:00 5,5 C 90 % 1014,9 hPa 0,5 l/m 1,3 km/h W 4,0 C 5,5 C 7,6 km/h
12.04.2010 22:00 5,4 C 91 % 1014,7 hPa 0,0 l/m 0,9 km/h SW 3,9 C 5,4 C 5,6 km/h
12.04.2010 23:00 5,4 C 91 % 1014,7 hPa 0,0 l/m 1,0 km/h W-SW 4,0 C 5,4 C 6,4 km/h
13.04.2010 00:00 5,5 C 90 % 1014,6 hPa 0,0 l/m 1,3 km/h SW 4,0 C 5,5 C 5,2 km/h
13.04.2010 01:00 5,5 C 90 % 1014,6 hPa 0,0 l/m 0,9 km/h W-SW 4,0 C 5,5 C 5,6 km/h
13.04.2010 02:00 5,7 C 90 % 1014,3 hPa 0,0 l/m 0,1 km/h N 4,2 C 5,7 C 2,4 km/h
13.04.2010 03:00 5,6 C 91 % 1014,1 hPa 0,5 l/m 0,1 km/h N 4,2 C 5,6 C 2,0 km/h
13.04.2010 04:00 5,6 C 91 % 1014,0 hPa 1,3 l/m 0,1 km/h N 4,2 C 5,6 C 2,4 km/h
13.04.2010 05:00 5,6 C 92 % 1013,9 hPa 1,6 l/m 0,4 km/h N 4,4 C 5,6 C 4,0 km/h
13.04.2010 06:00 5,7 C 92 % 1013,9 hPa 1,6 l/m 0,1 km/h N 4,5 C 5,7 C 1,6 km/h
13.04.2010 07:00 6,2 C 92 % 1013,9 hPa 0,5 l/m 0,1 km/h N 5,0 C 6,2 C 0,8 km/h
13.04.2010 08:00 6,6 C 93 % 1013,9 hPa 0,8 l/m 0,0 km/h N 5,5 C 6,6 C 0,8 km/h
13.04.2010 09:00 6,9 C 93 % 1013,8 hPa 0,5 l/m 0,1 km/h N 5,8 C 6,9 C 2,0 km/h
13.04.2010 10:00 7,3 C 93 % 1013,7 hPa 0,0 l/m 0,1 km/h N 6,2 C 7,3 C 1,6 km/h
13.04.2010 11:00 7,8 C 93 % 1013,8 hPa 0,0 l/m 0,4 km/h N 6,7 C 7,8 C 3,2 km/h
13.04.2010 12:00 8,3 C 93 % 1013,7 hPa 0,3 l/m 0,0 km/h N 7,2 C 8,3 C 1,2 km/h
13.04.2010 13:00 8,8 C 93 % 1013,4 hPa 0,0 l/m 0,0 km/h N 7,7 C 8,8 C 0,8 km/h
13.04.2010 14:00 9,4 C 92 % 1013,3 hPa 0,0 l/m 0,2 km/h N 8,2 C 9,4 C 2,0 km/h
13.04.2010 15:00 10,0 C 88 % 1012,8 hPa 0,0 l/m 0,1 km/h N 8,1 C 10,0 C 2,8 km/h
13.04.2010 16:00 10,5 C 84 % 1012,5 hPa 0,0 l/m 0,3 km/h N 7,9 C 10,5 C 2,4 km/h
13.04.2010 17:00 10,5 C 83 % 1012,3 hPa 0,0 l/m 0,1 km/h N 7,7 C 10,5 C 2,0 km/h
13.04.2010 18:00 10,2 C 85 % 1012,0 hPa 0,0 l/m 0,4 km/h N 7,8 C 10,2 C 2,8 km/h
13.04.2010 19:00 9,9 C 87 % 1011,6 hPa 0,3 l/m 0,2 km/h N 7,9 C 9,9 C 1,6 km/h
13.04.2010 20:00 9,5 C 90 % 1011,9 hPa 0,5 l/m 0,1 km/h N 8,0 C 9,5 C 1,6 km/h
13.04.2010 21:00 9,3 C 92 % 1011,9 hPa 1,0 l/m 0,0 km/h N 8,0 C 9,3 C 0,0 km/h
13.04.2010 22:00 9,1 C 93 % 1011,8 hPa 1,8 l/m 0,0 km/h N 7,9 C 9,1 C 0,4 km/h
13.04.2010 23:00 8,9 C 93 % 1011,6 hPa 0,8 l/m 0,0 km/h N 7,8 C 8,9 C 0,0 km/h
14.04.2010 00:00 9,0 C 93 % 1011,3 hPa 0,3 l/m 0,2 km/h O-NO 7,9 C 9,0 C 1,2 km/h
14.04.2010 01:00 8,8 C 94 % 1010,8 hPa 0,5 l/m 2,0 km/h O-NO 7,8 C 8,8 C 5,6 km/h
14.04.2010 02:00 8,5 C 94 % 1010,4 hPa 0,3 l/m 2,7 km/h NO 7,5 C 8,5 C 6,8 km/h
14.04.2010 03:00 8,3 C 94 % 1010,0 hPa 0,8 l/m 0,8 km/h N 7,4 C 8,3 C 3,6 km/h
14.04.2010 04:00 8,2 C 94 % 1009,8 hPa 0,3 l/m 0,9 km/h NO 7,3 C 8,2 C 4,4 km/h
14.04.2010 05:00 8,1 C 94 % 1009,5 hPa 0,8 l/m 0,3 km/h N 7,2 C 8,1 C 2,8 km/h
14.04.2010 06:00 8,0 C 94 % 1009,3 hPa 1,0 l/m 0,4 km/h N 7,1 C 8,0 C 3,6 km/h
14.04.2010 07:00 8,0 C 94 % 1009,2 hPa 0,5 l/m 0,6 km/h N-NW 7,1 C 8,0 C 3,6 km/h
14.04.2010 08:00 7,9 C 94 % 1009,2 hPa 0,3 l/m 2,2 km/h NO 7,0 C 7,9 C 7,6 km/h
14.04.2010 09:00 8,1 C 93 % 1009,2 hPa 0,3 l/m 2,1 km/h N-NW 7,1 C 8,1 C 7,2 km/h
14.04.2010 10:00 8,3 C 93 % 1009,2 hPa 0,3 l/m 2,5 km/h N-NW 7,2 C 8,3 C 7,2 km/h
14.04.2010 11:00 8,2 C 92 % 1009,3 hPa 0,5 l/m 1,9 km/h NW 7,0 C 8,2 C 6,0 km/h
14.04.2010 12:00 8,2 C 93 % 1009,3 hPa 1,3 l/m 1,3 km/h N-NW 7,1 C 8,2 C 5,6 km/h
14.04.2010 13:00 8,3 C 93 % 1009,1 hPa 2,1 l/m 1,0 km/h W-NW 7,3 C 8,3 C 4,8 km/h
14.04.2010 14:00 8,4 C 93 % 1009,3 hPa 1,0 l/m 1,7 km/h NW 7,4 C 8,4 C 6,0 km/h
14.04.2010 15:00 8,4 C 92 % 1009,3 hPa 0,8 l/m 1,2 km/h W-SW 7,2 C 8,4 C 5,6 km/h
14.04.2010 16:00 8,3 C 92 % 1009,3 hPa 1,0 l/m 1,0 km/h NW 7,1 C 8,3 C 5,2 km/h
14.04.2010 17:00 8,2 C 92 % 1009,5 hPa 1,8 l/m 2,4 km/h NW 6,9 C 8,2 C 7,2 km/h
14.04.2010 18:00 7,7 C 91 % 1009,8 hPa 1,0 l/m 3,0 km/h W-NW 6,4 C 7,7 C 8,9 km/h
14.04.2010 19:00 7,6 C 91 % 1010,2 hPa 0,8 l/m 2,2 km/h W-NW 6,2 C 7,6 C 8,9 km/h
14.04.2010 20:00 7,4 C 91 % 1010,6 hPa 2,1 l/m 3,3 km/h NW 6,0 C 7,4 C 9,3 km/h
14.04.2010 21:00 7,4 C 91 % 1011,0 hPa 1,8 l/m 3,3 km/h W-NW 6,0 C 7,4 C 8,9 km/h
14.04.2010 22:00 7,2 C 91 % 1011,3 hPa 0,5 l/m 3,9 km/h W-NW 5,8 C 7,2 C 10,5 km/h
14.04.2010 23:00 7,1 C 90 % 1011,3 hPa 0,3 l/m 4,0 km/h W-NW 5,5 C 7,1 C 10,9 km/h
15.04.2010 00:00 7,1 C 88 % 1011,2 hPa 0,0 l/m 4,4 km/h W-NW 5,3 C 7,1 C 12,1 km/h
15.04.2010 01:00 7,2 C 87 % 1011,1 hPa 0,0 l/m 4,0 km/h NW 5,2 C 7,2 C 10,9 km/h
15.04.2010 02:00 7,3 C 87 % 1010,9 hPa 0,0 l/m 4,5 km/h NW 5,3 C 7,3 C 12,5 km/h
15.04.2010 03:00 7,5 C 87 % 1010,8 hPa 0,0 l/m 5,0 km/h NW 5,4 C 7,5 C 14,1 km/h
15.04.2010 04:00 7,5 C 86 % 1010,8 hPa 0,0 l/m 5,4 km/h N-NW 5,3 C 7,5 C 14,1 km/h
15.04.2010 05:00 7,6 C 86 % 1011,0 hPa 0,0 l/m 6,2 km/h NW 5,4 C 7,6 C 18,5 km/h
15.04.2010 06:00 7,7 C 85 % 1011,3 hPa 0,0 l/m 5,5 km/h W-NW 5,4 C 7,6 C 18,1 km/h
15.04.2010 07:00 7,6 C 86 % 1011,6 hPa 0,0 l/m 6,4 km/h NW 5,4 C 7,5 C 18,5 km/h
15.04.2010 08:00 8,1 C 84 % 1011,8 hPa 0,0 l/m 8,0 km/h W-NW 5,4 C 6,8 C 24,1 km/h
15.04.2010 09:00 8,3 C 81 % 1011,8 hPa 0,0 l/m 7,2 km/h W-NW 5,2 C 7,7 C 23,3 km/h
15.04.2010 10:00 9,1 C 77 % 1012,0 hPa 0,0 l/m 8,9 km/h W-NW 5,3 C 7,4 C 25,0 km/h
15.04.2010 11:00 10,4 C 71 % 1012,0 hPa 0,0 l/m 9,7 km/h W 5,3 C 8,2 C 25,8 km/h
15.04.2010 12:00 10,4 C 70 % 1012,2 hPa 0,0 l/m 10,5 km/h W 5,1 C 7,8 C 29,8 km/h
15.04.2010 13:00 10,5 C 69 % 1012,0 hPa 0,0 l/m 9,7 km/h W 4,9 C 8,3 C 28,2 km/h
15.04.2010 14:00 10,6 C 68 % 1012,0 hPa 0,0 l/m 9,7 km/h W 4,9 C 8,4 C 24,9 km/h
15.04.2010 15:00 11,1 C 67 % 1011,8 hPa 0,0 l/m 8,1 km/h W-NW 5,1 C 10,1 C 27,4 km/h
15.04.2010 16:00 11,1 C 67 % 1011,6 hPa 0,0 l/m 8,8 km/h W 5,3 C 9,5 C 23,0 km/h
15.04.2010 17:00 10,1 C 77 % 1011,9 hPa 0,3 l/m 5,9 km/h W-NW 6,2 C 9,9 C 17,3 km/h
15.04.2010 18:00 9,0 C 85 % 1012,1 hPa 0,8 l/m 3,7 km/h W-NW 6,7 C 9,0 C 9,3 km/h
15.04.2010 19:00 8,7 C 86 % 1012,1 hPa 1,8 l/m 5,5 km/h NW 6,5 C 8,7 C 15,3 km/h
15.04.2010 20:00 8,6 C 87 % 1012,4 hPa 1,6 l/m 6,7 km/h W 6,5 C 8,2 C 21,7 km/h
15.04.2010 21:00 8,7 C 86 % 1012,6 hPa 0,8 l/m 6,2 km/h W-NW 6,4 C 8,6 C 18,5 km/h
15.04.2010 22:00 8,8 C 85 % 1012,6 hPa 0,0 l/m 7,1 km/h NW 6,4 C 8,2 C 20,5 km/h
15.04.2010 23:00 8,7 C 86 % 1012,8 hPa 0,5 l/m 6,1 km/h W 6,5 C 8,7 C 17,7 km/h
16.04.2010 00:00 8,6 C 87 % 1013,1 hPa 0,0 l/m 5,4 km/h NW 6,5 C 8,6 C 15,3 km/h
16.04.2010 01:00 8,5 C 87 % 1013,5 hPa 0,3 l/m 4,5 km/h N-NW 6,5 C 8,5 C 13,7 km/h
16.04.2010 02:00 8,7 C 85 % 1013,6 hPa 0,0 l/m 6,9 km/h NW 6,3 C 8,3 C 16,9 km/h
16.04.2010 03:00 8,7 C 85 % 1013,7 hPa 0,0 l/m 5,8 km/h W-SW 6,2 C 8,7 C 16,9 km/h
16.04.2010 04:00 8,7 C 84 % 1014,0 hPa 0,0 l/m 5,5 km/h NW 6,2 C 8,7 C 14,5 km/h
16.04.2010 05:00 8,6 C 83 % 1014,3 hPa 0,0 l/m 5,3 km/h W-NW 5,8 C 8,6 C 15,7 km/h
16.04.2010 06:00 8,5 C 81 % 1014,6 hPa 0,0 l/m 5,7 km/h NW 5,4 C 8,3 C 16,5 km/h
16.04.2010 07:00 8,7 C 79 % 1015,0 hPa 0,0 l/m 7,0 km/h NW 5,3 C 8,3 C 20,9 km/h
16.04.2010 08:00 9,1 C 80 % 1015,6 hPa 0,0 l/m 6,1 km/h NW 5,8 C 8,9 C 19,3 km/h
16.04.2010 09:00 9,9 C 78 % 1015,9 hPa 0,0 l/m 7,4 km/h W-NW 6,2 C 9,1 C 21,3 km/h
16.04.2010 10:00 11,2 C 74 % 1016,1 hPa 0,0 l/m 8,9 km/h W-SW 6,7 C 9,6 C 24,1 km/h
16.04.2010 11:00 12,5 C 70 % 1016,3 hPa 0,0 l/m 9,1 km/h NW 7,2 C 10,9 C 21,7 km/h
16.04.2010 12:00 13,4 C 66 % 1016,2 hPa 0,0 l/m 7,4 km/h W 7,1 C 12,8 C 22,1 km/h
16.04.2010 13:00 13,9 C 63 % 1016,0 hPa 0,0 l/m 7,0 km/h NW 7,0 C 13,4 C 18,1 km/h
16.04.2010 14:00 14,8 C 62 % 1015,8 hPa 0,0 l/m 8,3 km/h N-NW 7,4 C 13,7 C 22,9 km/h
16.04.2010 15:00 15,2 C 62 % 1015,5 hPa 0,0 l/m 7,7 km/h N-NW 7,9 C 14,5 C 17,3 km/h
16.04.2010 16:00 15,6 C 60 % 1015,2 hPa 0,0 l/m 7,3 km/h NW 7,9 C 15,1 C 18,1 km/h
16.04.2010 17:00 15,4 C 60 % 1015,3 hPa 0,0 l/m 5,6 km/h SW 7,7 C 15,3 C 15,3 km/h
16.04.2010 18:00 14,8 C 62 % 1015,4 hPa 0,0 l/m 4,1 km/h N-NW 7,5 C 14,8 C 10,1 km/h
16.04.2010 19:00 13,5 C 66 % 1015,6 hPa 0,0 l/m 1,3 km/h W 7,2 C 13,5 C 7,2 km/h
16.04.2010 20:00 11,9 C 70 % 1016,3 hPa 0,0 l/m 0,5 km/h NW 6,6 C 11,9 C 3,2 km/h
16.04.2010 21:00 11,6 C 71 % 1017,0 hPa 0,0 l/m 1,4 km/h NW 6,4 C 11,6 C 5,6 km/h
16.04.2010 22:00 10,5 C 75 % 1017,3 hPa 0,0 l/m 0,2 km/h N 6,2 C 10,5 C 2,0 km/h
16.04.2010 23:00 9,7 C 77 % 1018,1 hPa 0,0 l/m 2,7 km/h NW 5,9 C 9,5 C 7,7 km/h
17.04.2010 00:00 8,9 C 68 % 1019,0 hPa 0,0 l/m 9,1 km/h N-NW 3,4 C 7,0 C 22,5 km/h
17.04.2010 01:00 7,4 C 69 % 1020,0 hPa 0,0 l/m 3,5 km/h NW 2,1 C 7,4 C 9,7 km/h
17.04.2010 02:00 7,2 C 70 % 1020,0 hPa 0,0 l/m 4,3 km/h N-NW 2,0 C 7,2 C 13,7 km/h
17.04.2010 03:00 6,6 C 70 % 1020,2 hPa 0,0 l/m 2,6 km/h NW 1,6 C 6,6 C 9,7 km/h
17.04.2010 04:00 6,1 C 69 % 1020,4 hPa 0,0 l/m 4,0 km/h N-NW 0,9 C 6,1 C 9,7 km/h
17.04.2010 05:00 5,6 C 71 % 1020,8 hPa 0,0 l/m 3,2 km/h N-NW 0,7 C 5,6 C 7,6 km/h
17.04.2010 06:00 5,3 C 73 % 1021,2 hPa 0,0 l/m 3,0 km/h NW 0,8 C 5,3 C 8,0 km/h
17.04.2010 07:00 6,0 C 72 % 1021,5 hPa 0,0 l/m 2,9 km/h NW 1,3 C 6,0 C 8,4 km/h
17.04.2010 08:00 7,7 C 67 % 1021,8 hPa 0,0 l/m 3,3 km/h N 1,9 C 7,7 C 11,3 km/h
17.04.2010 09:00 9,2 C 60 % 1021,9 hPa 0,0 l/m 4,5 km/h N 1,7 C 9,2 C 13,7 km/h
17.04.2010 10:00 10,5 C 55 % 1021,9 hPa 0,0 l/m 4,7 km/h N 1,7 C 10,5 C 12,5 km/h
17.04.2010 11:00 11,6 C 49 % 1021,9 hPa 0,0 l/m 3,7 km/h N-NW 1,1 C 11,6 C 13,7 km/h
17.04.2010 12:00 12,4 C 49 % 1021,7 hPa 0,0 l/m 4,5 km/h NW 1,9 C 12,4 C 10,1 km/h
17.04.2010 13:00 13,5 C 48 % 1021,3 hPa 0,0 l/m 4,8 km/h N-NW 2,7 C 13,5 C 15,3 km/h
17.04.2010 14:00 13,9 C 44 % 1021,0 hPa 0,0 l/m 4,0 km/h NO 1,7 C 13,9 C 12,9 km/h
17.04.2010 15:00 14,5 C 42 % 1020,7 hPa 0,0 l/m 4,8 km/h N-NW 1,6 C 14,5 C 14,5 km/h
17.04.2010 16:00 14,9 C 43 % 1020,2 hPa 0,0 l/m 3,2 km/h W 2,4 C 14,9 C 12,9 km/h
17.04.2010 17:00 14,9 C 44 % 1019,8 hPa 0,0 l/m 3,2 km/h NO 2,6 C 14,9 C 12,1 km/h
17.04.2010 18:00 14,4 C 42 % 1019,7 hPa 0,0 l/m 1,6 km/h NO 1,5 C 14,4 C 8,0 km/h
17.04.2010 19:00 12,8 C 46 % 1019,7 hPa 0,0 l/m 1,6 km/h N 1,3 C 12,8 C 5,6 km/h
17.04.2010 20:00 10,3 C 60 % 1020,1 hPa 0,0 l/m 0,0 km/h N 2,8 C 10,3 C 2,4 km/h
17.04.2010 21:00 8,3 C 67 % 1020,5 hPa 0,0 l/m 0,0 km/h N 2,4 C 8,3 C 3,2 km/h
17.04.2010 22:00 7,3 C 70 % 1020,7 hPa 0,0 l/m 0,8 km/h W-SW 2,1 C 7,3 C 5,6 km/h
17.04.2010 23:00 6,5 C 73 % 1020,7 hPa 0,0 l/m 0,0 km/h N 1,9 C 6,5 C 4,0 km/h
18.04.2010 00:00 5,9 C 73 % 1020,7 hPa 0,0 l/m 0,0 km/h N 1,5 C 5,9 C 2,4 km/h
18.04.2010 01:00 3,8 C 81 % 1020,7 hPa 0,0 l/m 0,0 km/h N 0,8 C 3,8 C 0,8 km/h
18.04.2010 02:00 3,2 C 84 % 1020,1 hPa 0,0 l/m 0,0 km/h N 0,7 C 3,2 C 2,4 km/h
18.04.2010 03:00 2,3 C 87 % 1019,9 hPa 0,0 l/m 0,0 km/h N 0,3 C 2,3 C 1,6 km/h
18.04.2010 04:00 1,3 C 89 % 1019,7 hPa 0,0 l/m 0,0 km/h N -0,3 C 1,3 C 0,0 km/h
18.04.2010 05:00 0,9 C 90 % 1019,5 hPa 0,0 l/m 0,0 km/h N -0,7 C 0,9 C 0,0 km/h
18.04.2010 06:00 0,4 C 91 % 1019,3 hPa 0,0 l/m 0,0 km/h N -0,9 C 0,4 C 0,0 km/h
18.04.2010 07:00 2,6 C 90 % 1019,4 hPa 0,0 l/m 0,0 km/h N 1,1 C 2,6 C 0,0 km/h
18.04.2010 08:00 5,9 C 80 % 1019,2 hPa 0,0 l/m 0,8 km/h O 2,7 C 5,9 C 3,2 km/h
18.04.2010 09:00 8,4 C 74 % 1018,8 hPa 0,0 l/m 0,5 km/h SO 4,0 C 8,4 C 3,6 km/h
18.04.2010 10:00 13,1 C 56 % 1018,3 hPa 0,0 l/m 3,4 km/h S-SO 4,4 C 13,1 C 14,5 km/h
18.04.2010 11:00 13,5 C 57 % 1018,4 hPa 0,0 l/m 4,8 km/h S-SO 5,2 C 13,5 C 19,3 km/h
18.04.2010 12:00 13,8 C 56 % 1018,1 hPa 0,0 l/m 4,2 km/h SO 5,1 C 13,8 C 18,1 km/h
18.04.2010 13:00 15,0 C 47 % 1017,5 hPa 0,0 l/m 4,3 km/h O-SO 3,7 C 15,0 C 16,1 km/h
18.04.2010 14:00 15,5 C 44 % 1016,6 hPa 0,0 l/m 4,8 km/h N-NO 3,3 C 15,5 C 17,7 km/h
18.04.2010 15:00 15,8 C 47 % 1015,7 hPa 0,0 l/m 3,8 km/h SO 4,3 C 15,8 C 14,9 km/h
18.04.2010 16:00 15,3 C 51 % 1015,0 hPa 0,0 l/m 3,1 km/h O 5,3 C 15,3 C 12,5 km/h
18.04.2010 17:00 15,5 C 53 % 1014,5 hPa 0,0 l/m 4,1 km/h SO 5,9 C 15,5 C 17,7 km/h
18.04.2010 18:00 14,9 C 57 % 1013,9 hPa 0,0 l/m 4,0 km/h SO 6,3 C 14,9 C 14,5 km/h
18.04.2010 19:00 13,9 C 61 % 1013,0 hPa 0,0 l/m 4,1 km/h SO 6,4 C 13,9 C 15,3 km/h
18.04.2010 20:00 12,0 C 67 % 1013,1 hPa 0,0 l/m 0,6 km/h S 6,0 C 12,0 C 6,0 km/h
18.04.2010 21:00 11,2 C 70 % 1012,8 hPa 0,0 l/m 1,5 km/h S 5,8 C 11,2 C 8,9 km/h
18.04.2010 22:00 9,4 C 76 % 1012,5 hPa 0,0 l/m 0,3 km/h N 5,3 C 9,4 C 2,4 km/h
18.04.2010 23:00 9,2 C 76 % 1012,1 hPa 0,0 l/m 0,5 km/h N 5,1 C 9,2 C 3,2 km/h
Min-Datum _ 18.04.10 17.04.10 14.04.10 - 12.04.10 - 18.04.10 18.04.10 12.04.10
_ Min-Zeit 06:30 15:00 08:45 - 00:00 - 06:00 06:00 00:00
Minimum _ 0,3 C 40 % 1009,1 hPa - 0,0 km/h - -1,0 C 0,4 C 0,0 km/h
Max-Datum _ 18.04.10 14.04.10 17.04.10 14.04.10 15.04.10 - 13.04.10 18.04.10 15.04.10
_ Max-Zeit 15:00 01:00 09:45 13:00 12:00 - 15:00 14:45 12:00
Maximum _ 16,6 C 94 % 1022,0 hPa 2,1 l/m 11,3 km/h
W
- 8,3 C 16,4 C 32,2 km/h
W-SW
Durchschnitt _ 8,6 C 78 % 1014,8 hPa #49,7 l/m 3,1 km/h NW 4,8 C 8,5 C 9,8 km/h